Fruitland, Idaho
Current Conditions -  °F | °C
As of 7:53 PM on Sunday 21 Dec 2014 (Local Time) from KONO Reporting Station
Light Rain Light Rain  
Wind Chill: 40°   Ceiling: 5000
Heat Index: 43°   Visibility: 10mi
Dew Point: 41°   Wind: 5mph
Humidity: 93%   Direction: 220°SW
Pressure: 30.12"   Gusts: NA
Location:  44.01°N, 116.92°W
Report Text: KONO 220253Z AUTO 22004KT 10SM -RA SCT040 OVC050 06/05 A3012 RMK AO2 SLP210 P0002 60005 T00610050 51020
Loading
Personal Weather Stations






























Interactive Weather Map New forecast layout! Learn more

10-Day Weather Forecast

Advertisements
Track Severe Weather on mobile